sensor_id;sensor_type;location;lat;lon;timestamp;pressure;altitude;pressure_sealevel;temperature;humidity
54038;BME280;39954;48.844;9.726;2023-06-22T00:00:02;96174.94;;;17.48;100.00
54038;BME280;39954;48.844;9.726;2023-06-22T00:01:10;96173.28;;;17.47;100.00
54038;BME280;39954;48.844;9.726;2023-06-22T00:02:15;96177.13;;;17.43;100.00
54038;BME280;39954;48.844;9.726;2023-06-22T00:03:17;96172.13;;;17.40;100.00
54038;BME280;39954;48.844;9.726;2023-06-22T00:04:22;96174.75;;;17.40;100.00
54038;BME280;39954;48.844;9.726;2023-06-22T00:05:25;96175.00;;;17.37;100.00
54038;BME280;39954;48.844;9.726;2023-06-22T00:06:29;96167.38;;;17.34;100.00
54038;BME280;39954;48.844;9.726;2023-06-22T00:07:31;96167.38;;;17.34;100.00
54038;BME280;39954;48.844;9.726;2023-06-22T00:08:40;96164.03;;;17.32;100.00
54038;BME280;39954;48.844;9.726;2023-06-22T00:09:42;96162.34;;;17.31;100.00
54038;BME280;39954;48.844;9.726;2023-06-22T00:10:46;96158.34;;;17.27;100.00
54038;BME280;39954;48.844;9.726;2023-06-22T00:11:49;96150.72;;;17.23;100.00
54038;BME280;39954;48.844;9.726;2023-06-22T00:12:53;96154.06;;;17.26;100.00
54038;BME280;39954;48.844;9.726;2023-06-22T00:13:55;96155.81;;;17.25;100.00
54038;BME280;39954;48.844;9.726;2023-06-22T00:15:00;96155.97;;;17.23;100.00
54038;BME280;39954;48.844;9.726;2023-06-22T00:16:02;96153.59;;;17.20;100.00
54038;BME280;39954;48.844;9.726;2023-06-22T00:17:07;96154.41;;;17.21;100.00
54038;BME280;39954;48.844;9.726;2023-06-22T00:18:10;96156.34;;;17.19;100.00
54038;BME280;39954;48.844;9.726;2023-06-22T00:19:15;96150.50;;;17.15;100.00
54038;BME280;39954;48.844;9.726;2023-06-22T00:20:17;96157.66;;;17.13;100.00
54038;BME280;39954;48.844;9.726;2023-06-22T00:21:22;96155.19;;;17.12;100.00
54038;BME280;39954;48.844;9.726;2023-06-22T00:22:27;96159.84;;;17.08;100.00
54038;BME280;39954;48.844;9.726;2023-06-22T00:23:30;96152.94;;;17.07;100.00
54038;BME280;39954;48.844;9.726;2023-06-22T00:24:39;96147.09;;;17.04;100.00
54038;BME280;39954;48.844;9.726;2023-06-22T00:25:41;96152.59;;;17.00;100.00
54038;BME280;39954;48.844;9.726;2023-06-22T00:26:46;96146.28;;;17.03;100.00
54038;BME280;39954;48.844;9.726;2023-06-22T00:27:48;96149.84;;;17.02;100.00
54038;BME280;39954;48.844;9.726;2023-06-22T00:28:53;96146.53;;;17.00;100.00
54038;BME280;39954;48.844;9.726;2023-06-22T00:29:55;96142.94;;;17.01;100.00
54038;BME280;39954;48.844;9.726;2023-06-22T00:31:00;96142.94;;;17.01;100.00
54038;BME280;39954;48.844;9.726;2023-06-22T00:32:03;96139.06;;;17.05;100.00
54038;BME280;39954;48.844;9.726;2023-06-22T00:33:07;96143.97;;;17.10;100.00
54038;BME280;39954;48.844;9.726;2023-06-22T00:34:10;96134.44;;;17.09;100.00
54038;BME280;39954;48.844;9.726;2023-06-22T00:35:14;96142.88;;;17.12;100.00
54038;BME280;39954;48.844;9.726;2023-06-22T00:36:17;96141.22;;;17.11;100.00
54038;BME280;39954;48.844;9.726;2023-06-22T00:37:21;96138.34;;;17.14;100.00
54038;BME280;39954;48.844;9.726;2023-06-22T00:38:27;96136.41;;;17.16;100.00
54038;BME280;39954;48.844;9.726;2023-06-22T00:39:32;96134.50;;;17.18;100.00
54038;BME280;39954;48.844;9.726;2023-06-22T00:40:38;96142.50;;;17.17;100.00
54038;BME280;39954;48.844;9.726;2023-06-22T00:41:42;96135.56;;;17.16;100.00
54038;BME280;39954;48.844;9.726;2023-06-22T00:42:44;96151.47;;;17.14;100.00
54038;BME280;39954;48.844;9.726;2023-06-22T00:43:49;96147.88;;;17.15;100.00
54038;BME280;39954;48.844;9.726;2023-06-22T00:44:54;96145.25;;;17.15;100.00
54038;BME280;39954;48.844;9.726;2023-06-22T00:45:56;96146.66;;;17.19;100.00
54038;BME280;39954;48.844;9.726;2023-06-22T00:47:01;96145.97;;;17.17;100.00
54038;BME280;39954;48.844;9.726;2023-06-22T00:48:04;96141.81;;;17.15;100.00
54038;BME280;39954;48.844;9.726;2023-06-22T00:49:09;96141.09;;;17.13;100.00
54038;BME280;39954;48.844;9.726;2023-06-22T00:50:14;96135.84;;;17.13;100.00
54038;BME280;39954;48.844;9.726;2023-06-22T00:51:22;96139.44;;;17.12;100.00
54038;BME280;39954;48.844;9.726;2023-06-22T00:52:26;96135.00;;;17.12;100.00
54038;BME280;39954;48.844;9.726;2023-06-22T00:53:33;96130.84;;;17.10;100.00
54038;BME280;39954;48.844;9.726;2023-06-22T00:54:37;96132.50;;;17.11;100.00
54038;BME280;39954;48.844;9.726;2023-06-22T00:55:45;96137.13;;;17.18;100.00
54038;BME280;39954;48.844;9.726;2023-06-22T00:56:53;96138.78;;;17.19;100.00
54038;BME280;39954;48.844;9.726;2023-06-22T00:57:58;96135.31;;;17.19;100.00
54038;BME280;39954;48.844;9.726;2023-06-22T00:59:02;96135.56;;;17.16;100.00
54038;BME280;39954;48.844;9.726;2023-06-22T01:00:06;96133.03;;;17.26;100.00
54038;BME280;39954;48.844;9.726;2023-06-22T01:01:13;96133.97;;;17.25;100.00
54038;BME280;39954;48.844;9.726;2023-06-22T01:02:18;96130.41;;;17.26;100.00
54038;BME280;39954;48.844;9.726;2023-06-22T01:03:20;96133.03;;;17.26;100.00
54038;BME280;39954;48.844;9.726;2023-06-22T01:04:35;96133.16;;;17.24;100.00
54038;BME280;39954;48.844;9.726;2023-06-22T01:05:38;96130.66;;;17.22;100.00
54038;BME280;39954;48.844;9.726;2023-06-22T01:06:53;96137.56;;;17.23;100.00
54038;BME280;39954;48.844;9.726;2023-06-22T01:08:04;96139.22;;;17.25;100.00
54038;BME280;39954;48.844;9.726;2023-06-22T01:09:15;96137.00;;;17.20;100.00
54038;BME280;39954;48.844;9.726;2023-06-22T01:10:23;96146.44;;;17.22;100.00
54038;BME280;39954;48.844;9.726;2023-06-22T01:11:37;96142.00;;;17.23;100.00
54038;BME280;39954;48.844;9.726;2023-06-22T01:12:45;96150.44;;;17.27;100.00
54038;BME280;39954;48.844;9.726;2023-06-22T01:13:57;96148.91;;;17.24;100.00
54038;BME280;39954;48.844;9.726;2023-06-22T01:15:07;96135.22;;;17.20;100.00
54038;BME280;39954;48.844;9.726;2023-06-22T01:16:17;96146.53;;;17.21;100.00
54038;BME280;39954;48.844;9.726;2023-06-22T01:17:26;96153.44;;;17.22;100.00
54038;BME280;39954;48.844;9.726;2023-06-22T01:18:31;96153.59;;;17.20;100.00
54038;BME280;39954;48.844;9.726;2023-06-22T01:19:44;96159.03;;;17.29;100.00
54038;BME280;39954;48.844;9.726;2023-06-22T01:20:48;96156.69;;;17.26;100.00
54038;BME280;39954;48.844;9.726;2023-06-22T01:21:55;96155.81;;;17.25;100.00
54038;BME280;39954;48.844;9.726;2023-06-22T01:23:09;96150.00;;;17.21;100.00
54038;BME280;39954;48.844;9.726;2023-06-22T01:24:21;96152.25;;;17.26;100.00
54038;BME280;39954;48.844;9.726;2023-06-22T01:25:31;96145.19;;;17.27;100.00
54038;BME280;39954;48.844;9.726;2023-06-22T01:26:41;96152.38;;;17.25;100.00
54038;BME280;39954;48.844;9.726;2023-06-22T01:27:51;96156.94;;;17.22;100.00
54038;BME280;39954;48.844;9.726;2023-06-22T01:29:06;96164.66;;;17.24;100.00
54038;BME280;39954;48.844;9.726;2023-06-22T01:30:10;96164.81;;;17.22;100.00
54038;BME280;39954;48.844;9.726;2023-06-22T01:31:18;96163.13;;;17.21;100.00
54038;BME280;39954;48.844;9.726;2023-06-22T01:32:21;96161.47;;;17.20;100.00
54038;BME280;39954;48.844;9.726;2023-06-22T01:33:26;96161.84;;;17.16;100.00
54038;BME280;39954;48.844;9.726;2023-06-22T01:34:31;96161.00;;;17.15;100.00
54038;BME280;39954;48.844;9.726;2023-06-22T01:35:37;96164.47;;;17.16;100.00
54038;BME280;39954;48.844;9.726;2023-06-22T01:36:40;96167.22;;;17.14;100.00
54038;BME280;39954;48.844;9.726;2023-06-22T01:37:46;96175.78;;;17.16;100.00
54038;BME280;39954;48.844;9.726;2023-06-22T01:38:49;96167.91;;;17.16;100.00
54038;BME280;39954;48.844;9.726;2023-06-22T01:39:55;96172.47;;;17.14;100.00
54038;BME280;39954;48.844;9.726;2023-06-22T01:40:58;96183.66;;;17.16;100.00
54038;BME280;39954;48.844;9.726;2023-06-22T01:42:04;96182.13;;;17.14;100.00
54038;BME280;39954;48.844;9.726;2023-06-22T01:43:07;96183.25;;;17.11;100.00
54038;BME280;39954;48.844;9.726;2023-06-22T01:44:15;96176.19;;;17.12;100.00
54038;BME280;39954;48.844;9.726;2023-06-22T01:45:18;96176.31;;;17.10;100.00
54038;BME280;39954;48.844;9.726;2023-06-22T01:46:24;96179.19;;;17.07;100.00
54038;BME280;39954;48.844;9.726;2023-06-22T01:47:26;96172.53;;;17.03;100.00
54038;BME280;39954;48.844;9.726;2023-06-22T01:48:32;96183.03;;;17.03;100.00
54038;BME280;39954;48.844;9.726;2023-06-22T01:49:34;96176.81;;;17.04;100.00
54038;BME280;39954;48.844;9.726;2023-06-22T01:50:39;96180.25;;;17.05;100.00
54038;BME280;39954;48.844;9.726;2023-06-22T01:51:42;96183.97;;;17.02;100.00
54038;BME280;39954;48.844;9.726;2023-06-22T01:52:47;96181.59;;;16.99;100.00
54038;BME280;39954;48.844;9.726;2023-06-22T01:53:49;96189.72;;;16.96;100.00
54038;BME280;39954;48.844;9.726;2023-06-22T01:54:54;96180.44;;;16.92;100.00
54038;BME280;39954;48.844;9.726;2023-06-22T01:55:56;96175.44;;;16.89;100.00
54038;BME280;39954;48.844;9.726;2023-06-22T01:57:01;96179.25;;;16.85;100.00
54038;BME280;39954;48.844;9.726;2023-06-22T01:58:03;96171.72;;;16.80;100.00
54038;BME280;39954;48.844;9.726;2023-06-22T01:59:12;96169.34;;;16.77;100.00
54038;BME280;39954;48.844;9.726;2023-06-22T02:00:21;96174.50;;;16.78;100.00
54038;BME280;39954;48.844;9.726;2023-06-22T02:01:37;96174.72;;;16.75;100.00
54038;BME280;39954;48.844;9.726;2023-06-22T02:02:46;96176.88;;;16.70;100.00
54038;BME280;39954;48.844;9.726;2023-06-22T02:04:02;96174.09;;;16.72;100.00
54038;BME280;39954;48.844;9.726;2023-06-22T02:05:08;96182.13;;;16.70;100.00
54038;BME280;39954;48.844;9.726;2023-06-22T02:06:17;96165.91;;;16.65;100.00
54038;BME280;39954;48.844;9.726;2023-06-22T02:07:23;96179.25;;;16.62;100.00
54038;BME280;39954;48.844;9.726;2023-06-22T02:08:30;96175.22;;;16.58;100.00
54038;BME280;39954;48.844;9.726;2023-06-22T02:09:35;96175.44;;;16.55;100.00
54038;BME280;39954;48.844;9.726;2023-06-22T02:10:42;96172.97;;;16.53;100.00
54038;BME280;39954;48.844;9.726;2023-06-22T02:11:46;96175.44;;;16.55;100.00
54038;BME280;39954;48.844;9.726;2023-06-22T02:12:54;96180.94;;;16.52;100.00
54038;BME280;39954;48.844;9.726;2023-06-22T02:13:57;96176.66;;;16.51;100.00
54038;BME280;39954;48.844;9.726;2023-06-22T02:15:03;96177.72;;;16.48;100.00
54038;BME280;39954;48.844;9.726;2023-06-22T02:16:09;96170.22;;;16.44;100.00
54038;BME280;39954;48.844;9.726;2023-06-22T02:17:14;96174.63;;;16.43;100.00
54038;BME280;39954;48.844;9.726;2023-06-22T02:18:16;96173.09;;;16.41;100.00
54038;BME280;39954;48.844;9.726;2023-06-22T02:19:23;96171.44;;;16.40;100.00
54038;BME280;39954;48.844;9.726;2023-06-22T02:20:25;96168.91;;;16.38;100.00
54038;BME280;39954;48.844;9.726;2023-06-22T02:21:30;96176.44;;;16.43;100.00
54038;BME280;39954;48.844;9.726;2023-06-22T02:22:32;96176.69;;;16.40;100.00
54038;BME280;39954;48.844;9.726;2023-06-22T02:23:37;96171.44;;;16.40;100.00
54038;BME280;39954;48.844;9.726;2023-06-22T02:24:39;96182.88;;;16.39;100.00
54038;BME280;39954;48.844;9.726;2023-06-22T02:25:45;96181.19;;;16.38;100.00
54038;BME280;39954;48.844;9.726;2023-06-22T02:26:47;96178.72;;;16.36;100.00
54038;BME280;39954;48.844;9.726;2023-06-22T02:27:52;96186.69;;;16.34;100.00
54038;BME280;39954;48.844;9.726;2023-06-22T02:28:54;96189.31;;;16.34;100.00
54038;BME280;39954;48.844;9.726;2023-06-22T02:29:59;96185.03;;;16.33;100.00
54038;BME280;39954;48.844;9.726;2023-06-22T02:31:01;96182.16;;;16.37;100.00
54038;BME280;39954;48.844;9.726;2023-06-22T02:32:09;96190.03;;;16.37;100.00
54038;BME280;39954;48.844;9.726;2023-06-22T02:33:11;96183.72;;;16.39;100.00
54038;BME280;39954;48.844;9.726;2023-06-22T02:34:16;96185.03;;;16.33;100.00
54038;BME280;39954;48.844;9.726;2023-06-22T02:35:20;96174.53;;;16.33;100.00
54038;BME280;39954;48.844;9.726;2023-06-22T02:36:25;96169.78;;;16.39;100.00
54038;BME280;39954;48.844;9.726;2023-06-22T02:37:28;96170.22;;;16.32;100.00
54038;BME280;39954;48.844;9.726;2023-06-22T02:38:33;96177.50;;;16.29;100.00
54038;BME280;39954;48.844;9.726;2023-06-22T02:39:36;96173.34;;;16.26;100.00
54038;BME280;39954;48.844;9.726;2023-06-22T02:40:42;96173.34;;;16.26;100.00
54038;BME280;39954;48.844;9.726;2023-06-22T02:41:44;96170.72;;;16.26;100.00
54038;BME280;39954;48.844;9.726;2023-06-22T02:42:49;96173.56;;;16.23;100.00
54038;BME280;39954;48.844;9.726;2023-06-22T02:43:51;96177.16;;;16.22;100.00
54038;BME280;39954;48.844;9.726;2023-06-22T02:44:55;96176.09;;;16.25;100.00
54038;BME280;39954;48.844;9.726;2023-06-22T02:45:57;96171.69;;;16.25;100.00
54038;BME280;39954;48.844;9.726;2023-06-22T02:47:03;96175.03;;;16.27;100.00
54038;BME280;39954;48.844;9.726;2023-06-22T02:48:08;96167.16;;;16.27;100.00
54038;BME280;39954;48.844;9.726;2023-06-22T02:49:12;96167.84;;;16.29;100.00
54038;BME280;39954;48.844;9.726;2023-06-22T02:50:15;96159.03;;;16.30;100.00
54038;BME280;39954;48.844;9.726;2023-06-22T02:51:19;96160.94;;;16.40;100.00
54038;BME280;39954;48.844;9.726;2023-06-22T02:52:22;96157.09;;;16.44;100.00
54038;BME280;39954;48.844;9.726;2023-06-22T02:53:27;96155.44;;;16.43;100.00
54038;BME280;39954;48.844;9.726;2023-06-22T02:54:29;96155.34;;;16.44;100.00
54038;BME280;39954;48.844;9.726;2023-06-22T02:55:34;96154.38;;;16.45;100.00
54038;BME280;39954;48.844;9.726;2023-06-22T02:56:37;96153.16;;;16.49;100.00
54038;BME280;39954;48.844;9.726;2023-06-22T02:57:42;96154.84;;;16.50;100.00
54038;BME280;39954;48.844;9.726;2023-06-22T02:58:46;96158.28;;;16.51;100.00
54038;BME280;39954;48.844;9.726;2023-06-22T02:59:50;96159.84;;;16.53;100.00
54038;BME280;39954;48.844;9.726;2023-06-22T03:00:52;96158.88;;;16.54;100.00
54038;BME280;39954;48.844;9.726;2023-06-22T03:01:57;96159.84;;;16.53;100.00
54038;BME280;39954;48.844;9.726;2023-06-22T03:02:59;96168.53;;;16.54;100.00
54038;BME280;39954;48.844;9.726;2023-06-22T03:04:07;96165.09;;;16.53;100.00
54038;BME280;39954;48.844;9.726;2023-06-22T03:05:09;96165.69;;;16.57;100.00
54038;BME280;39954;48.844;9.726;2023-06-22T03:06:15;96164.13;;;16.54;100.00
54038;BME280;39954;48.844;9.726;2023-06-22T03:07:17;96159.13;;;16.51;100.00
54038;BME280;39954;48.844;9.726;2023-06-22T03:08:22;96155.44;;;16.54;100.00
54038;BME280;39954;48.844;9.726;2023-06-22T03:09:24;96160.09;;;16.50;100.00
54038;BME280;39954;48.844;9.726;2023-06-22T03:10:29;96160.09;;;16.50;100.00
54038;BME280;39954;48.844;9.726;2023-06-22T03:11:32;96155.91;;;16.48;100.00
54038;BME280;39954;48.844;9.726;2023-06-22T03:12:37;96154.47;;;16.44;100.00
54038;BME280;39954;48.844;9.726;2023-06-22T03:13:40;96154.63;;;16.42;100.00
54038;BME280;39954;48.844;9.726;2023-06-22T03:14:47;96151.41;;;16.39;100.00
54038;BME280;39954;48.844;9.726;2023-06-22T03:15:49;96154.97;;;16.38;100.00
54038;BME280;39954;48.844;9.726;2023-06-22T03:16:54;96153.56;;;16.33;100.00
54038;BME280;39954;48.844;9.726;2023-06-22T03:17:56;96150.22;;;16.31;100.00
54038;BME280;39954;48.844;9.726;2023-06-22T03:19:01;96145.47;;;16.25;100.00
54038;BME280;39954;48.844;9.726;2023-06-22T03:20:08;96148.31;;;16.22;100.00
54038;BME280;39954;48.844;9.726;2023-06-22T03:21:13;96141.41;;;16.21;100.00
54038;BME280;39954;48.844;9.726;2023-06-22T03:22:17;96144.25;;;16.18;100.00
54038;BME280;39954;48.844;9.726;2023-06-22T03:23:21;96147.13;;;16.15;100.00
54038;BME280;39954;48.844;9.726;2023-06-22T03:24:26;96148.19;;;16.13;100.00
54038;BME280;39954;48.844;9.726;2023-06-22T03:25:30;96143.19;;;16.09;100.00
54038;BME280;39954;48.844;9.726;2023-06-22T03:26:35;96147.72;;;16.07;100.00
54038;BME280;39954;48.844;9.726;2023-06-22T03:27:37;96149.50;;;16.07;100.00
54038;BME280;39954;48.844;9.726;2023-06-22T03:28:42;96140.00;;;16.06;100.00
54038;BME280;39954;48.844;9.726;2023-06-22T03:29:44;96139.16;;;16.05;100.00
54038;BME280;39954;48.844;9.726;2023-06-22T03:30:49;96138.31;;;16.05;100.00
54038;BME280;39954;48.844;9.726;2023-06-22T03:31:51;96137.47;;;16.04;100.00
54038;BME280;39954;48.844;9.726;2023-06-22T03:32:56;96142.47;;;16.07;100.00
54038;BME280;39954;48.844;9.726;2023-06-22T03:33:58;96131.97;;;16.07;100.00
54038;BME280;39954;48.844;9.726;2023-06-22T03:35:06;96129.25;;;16.09;100.00
54038;BME280;39954;48.844;9.726;2023-06-22T03:36:09;96128.44;;;16.08;100.00
54038;BME280;39954;48.844;9.726;2023-06-22T03:37:13;96130.91;;;16.10;100.00
54038;BME280;39954;48.844;9.726;2023-06-22T03:38:16;96128.53;;;16.07;100.00
54038;BME280;39954;48.844;9.726;2023-06-22T03:39:21;96128.66;;;16.05;100.00
54038;BME280;39954;48.844;9.726;2023-06-22T03:40:23;96132.13;;;16.06;100.00
54038;BME280;39954;48.844;9.726;2023-06-22T03:41:28;96137.38;;;16.06;100.00
54038;BME280;39954;48.844;9.726;2023-06-22T03:42:30;96129.84;;;16.13;100.00
54038;BME280;39954;48.844;9.726;2023-06-22T03:43:35;96144.50;;;16.15;100.00
54038;BME280;39954;48.844;9.726;2023-06-22T03:44:37;96145.56;;;16.13;100.00
54038;BME280;39954;48.844;9.726;2023-06-22T03:45:41;96140.22;;;16.14;100.00
54038;BME280;39954;48.844;9.726;2023-06-22T03:46:44;96135.69;;;16.16;100.00
54038;BME280;39954;48.844;9.726;2023-06-22T03:47:48;96146.19;;;16.16;100.00
54038;BME280;39954;48.844;9.726;2023-06-22T03:48:51;96136.53;;;16.17;100.00
54038;BME280;39954;48.844;9.726;2023-06-22T03:49:55;96140.94;;;16.16;100.00
54038;BME280;39954;48.844;9.726;2023-06-22T03:51:01;96136.63;;;16.15;100.00
54038;BME280;39954;48.844;9.726;2023-06-22T03:52:07;96141.53;;;16.20;100.00
54038;BME280;39954;48.844;9.726;2023-06-22T03:53:09;96140.69;;;16.19;100.00
54038;BME280;39954;48.844;9.726;2023-06-22T03:54:15;96141.53;;;16.20;100.00
54038;BME280;39954;48.844;9.726;2023-06-22T03:55:17;96149.41;;;16.20;100.00
54038;BME280;39954;48.844;9.726;2023-06-22T03:56:21;96151.88;;;16.21;100.00
54038;BME280;39954;48.844;9.726;2023-06-22T03:57:24;96144.00;;;16.21;100.00
54038;BME280;39954;48.844;9.726;2023-06-22T03:58:28;96143.09;;;16.22;100.00
54038;BME280;39954;48.844;9.726;2023-06-22T03:59:34;96145.56;;;16.24;100.00
54038;BME280;39954;48.844;9.726;2023-06-22T04:00:39;96149.88;;;16.25;100.00
54038;BME280;39954;48.844;9.726;2023-06-22T04:01:41;96149.75;;;16.26;100.00
54038;BME280;39954;48.844;9.726;2023-06-22T04:02:46;96145.22;;;16.28;100.00
54038;BME280;39954;48.844;9.726;2023-06-22T04:03:48;96143.31;;;16.30;100.00
54038;BME280;39954;48.844;9.726;2023-06-22T04:04:53;96149.97;;;16.34;100.00
54038;BME280;39954;48.844;9.726;2023-06-22T04:05:55;96147.09;;;16.38;100.00
54038;BME280;39954;48.844;9.726;2023-06-22T04:07:03;96140.91;;;16.39;100.00
54038;BME280;39954;48.844;9.726;2023-06-22T04:08:08;96141.38;;;16.44;100.00
54038;BME280;39954;48.844;9.726;2023-06-22T04:09:13;96142.09;;;16.46;100.00
54038;BME280;39954;48.844;9.726;2023-06-22T04:10:15;96138.28;;;16.50;100.00
54038;BME280;39954;48.844;9.726;2023-06-22T04:11:20;96135.53;;;16.51;100.00
54038;BME280;39954;48.844;9.726;2023-06-22T04:12:22;96135.88;;;16.58;100.00
54038;BME280;39954;48.844;9.726;2023-06-22T04:13:26;96137.53;;;16.59;100.00
54038;BME280;39954;48.844;9.726;2023-06-22T04:14:29;96137.28;;;16.62;100.00
54038;BME280;39954;48.844;9.726;2023-06-22T04:15:33;96134.31;;;16.67;100.00
54038;BME280;39954;48.844;9.726;2023-06-22T04:16:35;96135.00;;;16.69;100.00
54038;BME280;39954;48.844;9.726;2023-06-22T04:17:40;96133.91;;;16.71;100.00
54038;BME280;39954;48.844;9.726;2023-06-22T04:18:42;96138.91;;;16.74;100.00
54038;BME280;39954;48.844;9.726;2023-06-22T04:19:47;96136.06;;;16.77;100.00
54038;BME280;39954;48.844;9.726;2023-06-22T04:20:49;96143.00;;;16.78;100.00
54038;BME280;39954;48.844;9.726;2023-06-22T04:21:54;96136.44;;;16.84;100.00
54038;BME280;39954;48.844;9.726;2023-06-22T04:22:58;96137.97;;;16.87;100.00
54038;BME280;39954;48.844;9.726;2023-06-22T04:24:04;96135.56;;;16.95;100.00
54038;BME280;39954;48.844;9.726;2023-06-22T04:25:07;96136.50;;;16.94;100.00
54038;BME280;39954;48.844;9.726;2023-06-22T04:26:12;96135.41;;;16.96;100.00
54038;BME280;39954;48.844;9.726;2023-06-22T04:27:15;96131.47;;;17.02;100.00
54038;BME280;39954;48.844;9.726;2023-06-22T04:28:21;96134.09;;;17.02;100.00
54038;BME280;39954;48.844;9.726;2023-06-22T04:29:23;96125.94;;;17.05;100.00
54038;BME280;39954;48.844;9.726;2023-06-22T04:30:32;96127.63;;;17.06;100.00
54038;BME280;39954;48.844;9.726;2023-06-22T04:31:35;96123.94;;;17.09;100.00
54038;BME280;39954;48.844;9.726;2023-06-22T04:32:40;96126.16;;;17.13;100.00
54038;BME280;39954;48.844;9.726;2023-06-22T04:33:43;96120.66;;;17.16;100.00
54038;BME280;39954;48.844;9.726;2023-06-22T04:34:47;96119.56;;;17.19;100.00
54038;BME280;39954;48.844;9.726;2023-06-22T04:35:49;96116.81;;;17.20;100.00
54038;BME280;39954;48.844;9.726;2023-06-22T04:36:55;96112.16;;;17.24;100.00
54038;BME280;39954;48.844;9.726;2023-06-22T04:37:59;96109.16;;;17.29;100.00
54038;BME280;39954;48.844;9.726;2023-06-22T04:39:06;96111.63;;;17.30;100.00
54038;BME280;39954;48.844;9.726;2023-06-22T04:40:09;96116.38;;;17.36;100.00
54038;BME280;39954;48.844;9.726;2023-06-22T04:41:16;96113.63;;;17.38;100.00
54038;BME280;39954;48.844;9.726;2023-06-22T04:42:26;96107.28;;;17.40;100.00
54038;BME280;39954;48.844;9.726;2023-06-22T04:43:33;96093.78;;;17.45;100.00
54038;BME280;39954;48.844;9.726;2023-06-22T04:44:35;96104.59;;;17.52;100.00
54038;BME280;39954;48.844;9.726;2023-06-22T04:45:41;96099.22;;;17.53;100.00
54038;BME280;39954;48.844;9.726;2023-06-22T04:46:43;96093.81;;;17.55;100.00
54038;BME280;39954;48.844;9.726;2023-06-22T04:47:55;96096.31;;;17.56;100.00
54038;BME280;39954;48.844;9.726;2023-06-22T04:48:57;96091.91;;;17.57;100.00
54038;BME280;39954;48.844;9.726;2023-06-22T04:50:03;96094.13;;;17.61;100.00
54038;BME280;39954;48.844;9.726;2023-06-22T04:51:07;96093.19;;;17.62;100.00
54038;BME280;39954;48.844;9.726;2023-06-22T04:52:13;96091.09;;;17.66;100.00
54038;BME280;39954;48.844;9.726;2023-06-22T04:53:18;96100.25;;;17.72;100.00
54038;BME280;39954;48.844;9.726;2023-06-22T04:54:22;96089.50;;;17.75;100.00
54038;BME280;39954;48.844;9.726;2023-06-22T04:55:25;96090.09;;;17.78;100.00
54038;BME280;39954;48.844;9.726;2023-06-22T04:56:29;96091.78;;;17.79;100.00
54038;BME280;39954;48.844;9.726;2023-06-22T04:57:32;96093.03;;;17.85;100.00
54038;BME280;39954;48.844;9.726;2023-06-22T04:58:37;96093.47;;;17.90;100.00
54038;BME280;39954;48.844;9.726;2023-06-22T04:59:40;96085.75;;;17.98;100.00
54038;BME280;39954;48.844;9.726;2023-06-22T05:00:45;96087.16;;;18.02;100.00
54038;BME280;39954;48.844;9.726;2023-06-22T05:01:48;96082.72;;;18.03;100.00
54038;BME280;39954;48.844;9.726;2023-06-22T05:02:55;96080.78;;;18.05;100.00
54038;BME280;39954;48.844;9.726;2023-06-22T05:04:19;96082.19;;;18.09;100.00
54038;BME280;39954;48.844;9.726;2023-06-22T05:05:25;96075.56;;;18.15;100.00
54038;BME280;39954;48.844;9.726;2023-06-22T05:06:30;96072.53;;;18.19;100.00
54038;BME280;39954;48.844;9.726;2023-06-22T05:07:32;96067.97;;;18.21;100.00
54038;BME280;39954;48.844;9.726;2023-06-22T05:08:39;96067.72;;;18.24;100.00
54038;BME280;39954;48.844;9.726;2023-06-22T05:09:44;96071.72;;;18.28;100.00
54038;BME280;39954;48.844;9.726;2023-06-22T05:10:46;96057.91;;;18.36;100.00
54038;BME280;39954;48.844;9.726;2023-06-22T05:12:07;96059.03;;;18.43;100.00
54038;BME280;39954;48.844;9.726;2023-06-22T05:13:13;96056.25;;;18.45;100.00
54038;BME280;39954;48.844;9.726;2023-06-22T05:14:15;96054.88;;;18.50;100.00
54038;BME280;39954;48.844;9.726;2023-06-22T05:15:20;96060.56;;;18.55;100.00
54038;BME280;39954;48.844;9.726;2023-06-22T05:16:24;96061.53;;;18.54;100.00
54038;BME280;39954;48.844;9.726;2023-06-22T05:17:28;96052.66;;;18.55;100.00
54038;BME280;39954;48.844;9.726;2023-06-22T05:18:31;96054.03;;;18.60;100.00
54038;BME280;39954;48.844;9.726;2023-06-22T05:19:36;96062.34;;;18.65;100.00
54038;BME280;39954;48.844;9.726;2023-06-22T05:20:41;96056.81;;;18.68;100.00
54038;BME280;39954;48.844;9.726;2023-06-22T05:21:46;96051.06;;;18.74;100.00
54038;BME280;39954;48.844;9.726;2023-06-22T05:22:51;96056.72;;;18.79;100.00
54038;BME280;39954;48.844;9.726;2023-06-22T05:23:56;96054.38;;;18.86;100.00
54038;BME280;39954;48.844;9.726;2023-06-22T05:25:05;96059.91;;;18.92;100.00
54038;BME280;39954;48.844;9.726;2023-06-22T05:26:08;96049.91;;;18.96;100.00
54038;BME280;39954;48.844;9.726;2023-06-22T05:27:13;96049.09;;;19.05;100.00
54038;BME280;39954;48.844;9.726;2023-06-22T05:28:15;96046.16;;;19.18;100.00
54038;BME280;39954;48.844;9.726;2023-06-22T05:29:25;96041.16;;;19.25;100.00
54038;BME280;39954;48.844;9.726;2023-06-22T05:30:28;96052.13;;;19.30;100.00
54038;BME280;39954;48.844;9.726;2023-06-22T05:31:33;96039.47;;;19.33;100.00
54038;BME280;39954;48.844;9.726;2023-06-22T05:32:35;96045.16;;;19.38;100.00
54038;BME280;39954;48.844;9.726;2023-06-22T05:33:41;96047.63;;;19.50;100.00
54038;BME280;39954;48.844;9.726;2023-06-22T05:34:43;96045.38;;;19.55;100.00
54038;BME280;39954;48.844;9.726;2023-06-22T05:35:48;96046.59;;;19.60;100.00
54038;BME280;39954;48.844;9.726;2023-06-22T05:36:50;96048.81;;;19.65;100.00
54038;BME280;39954;48.844;9.726;2023-06-22T05:37:55;96046.47;;;19.72;100.00
54038;BME280;39954;48.844;9.726;2023-06-22T05:39:10;96050.47;;;19.76;100.00